createdAt,value
2022-09-14T00:00:19.860Z,932.49
2022-09-14T00:01:27.460Z,932.52
2022-09-14T00:02:20.091Z,932.50
2022-09-14T00:03:20.004Z,932.50
2022-09-14T00:04:19.914Z,932.50
2022-09-14T00:05:19.928Z,932.52
2022-09-14T00:06:19.940Z,932.51
2022-09-14T00:07:19.956Z,932.51
2022-09-14T00:08:19.971Z,932.48
2022-09-14T00:09:20.003Z,932.50
2022-09-14T00:10:19.997Z,932.50
2022-09-14T00:11:20.009Z,932.49
2022-09-14T00:12:20.026Z,932.45
2022-09-14T00:13:20.041Z,932.45
2022-09-14T00:14:20.054Z,932.47
2022-09-14T00:15:20.065Z,932.43
2022-09-14T00:16:20.211Z,932.50
2022-09-14T00:17:20.096Z,932.51
2022-09-14T00:18:20.108Z,932.53
2022-09-14T00:19:20.121Z,932.56
2022-09-14T00:20:20.135Z,932.55
2022-09-14T00:21:20.151Z,932.54
2022-09-14T00:22:20.162Z,932.58
2022-09-14T00:23:20.179Z,932.57
2022-09-14T00:24:20.190Z,932.56
2022-09-14T00:25:20.225Z,932.63
2022-09-14T00:26:20.218Z,932.62
2022-09-14T00:27:20.234Z,932.63
2022-09-14T00:28:20.246Z,932.64
2022-09-14T00:29:20.262Z,932.62
2022-09-14T00:30:20.279Z,932.61
2022-09-14T00:31:20.348Z,932.61
2022-09-14T00:32:20.302Z,932.57
2022-09-14T00:33:20.316Z,932.55
2022-09-14T00:34:20.330Z,932.56
2022-09-14T00:35:20.341Z,932.56
2022-09-14T00:36:20.354Z,932.53
2022-09-14T00:37:20.371Z,932.58
2022-09-14T00:38:20.387Z,932.58
2022-09-14T00:39:20.397Z,932.58
2022-09-14T00:40:20.520Z,932.61
2022-09-14T00:41:20.447Z,932.63
2022-09-14T00:42:20.440Z,932.61
2022-09-14T00:43:20.452Z,932.61
2022-09-14T00:44:20.466Z,932.62
2022-09-14T00:45:20.611Z,932.62
2022-09-14T00:46:20.500Z,932.61
2022-09-14T00:47:20.507Z,932.64
2022-09-14T00:48:20.521Z,932.62
2022-09-14T00:49:20.537Z,932.57
2022-09-14T00:50:20.549Z,932.61
2022-09-14T00:51:20.565Z,932.62
2022-09-14T00:52:20.575Z,932.62
2022-09-14T00:53:20.596Z,932.63
2022-09-14T00:54:20.603Z,932.60
2022-09-14T00:55:20.621Z,932.57
2022-09-14T00:56:20.630Z,932.62
2022-09-14T00:57:20.664Z,932.61
2022-09-14T00:58:20.660Z,932.63
2022-09-14T00:59:20.676Z,932.62
2022-09-14T01:00:20.688Z,932.65
2022-09-14T01:01:20.753Z,932.66
2022-09-14T01:02:20.779Z,932.69
2022-09-14T01:03:20.728Z,932.67
2022-09-14T01:04:20.743Z,932.66
2022-09-14T01:05:20.756Z,932.67
2022-09-14T01:06:20.770Z,932.69
2022-09-14T01:07:20.783Z,932.72
2022-09-14T01:08:20.798Z,932.75
2022-09-14T01:09:20.813Z,932.71
2022-09-14T01:10:20.823Z,932.74
2022-09-14T01:11:20.840Z,932.74
2022-09-14T01:12:20.854Z,932.75
2022-09-14T01:13:20.884Z,932.71
2022-09-14T01:14:20.881Z,932.70
2022-09-14T01:15:20.893Z,932.70
2022-09-14T01:16:20.940Z,932.68
2022-09-14T01:17:20.921Z,932.65
2022-09-14T01:18:20.936Z,932.63
2022-09-14T01:19:20.946Z,932.67
2022-09-14T01:20:20.964Z,932.65
2022-09-14T01:21:20.978Z,932.65
2022-09-14T01:22:20.990Z,932.67
2022-09-14T01:23:21.004Z,932.69
2022-09-14T01:24:21.017Z,932.69
2022-09-14T01:25:21.033Z,932.68
2022-09-14T01:26:21.044Z,932.72
2022-09-14T01:27:21.059Z,932.70
2022-09-14T01:28:21.073Z,932.71
2022-09-14T01:29:21.107Z,932.70
2022-09-14T01:30:21.118Z,932.68
2022-09-14T01:31:21.175Z,932.68
2022-09-14T01:32:21.127Z,932.70
2022-09-14T01:33:21.142Z,932.70
2022-09-14T01:34:21.156Z,932.76
2022-09-14T01:35:21.169Z,932.73
2022-09-14T01:36:21.182Z,932.80
2022-09-14T01:37:21.197Z,932.79
2022-09-14T01:38:21.208Z,932.78
2022-09-14T01:39:21.223Z,932.74
2022-09-14T01:40:21.316Z,932.74
2022-09-14T01:41:21.253Z,932.74
2022-09-14T01:42:21.263Z,932.78
2022-09-14T01:43:21.278Z,932.81
2022-09-14T01:44:21.293Z,932.83
2022-09-14T01:45:21.444Z,932.85
2022-09-14T01:46:21.318Z,932.84
2022-09-14T01:47:21.333Z,932.89
2022-09-14T01:48:21.346Z,932.86
2022-09-14T01:49:21.362Z,932.85
2022-09-14T01:50:21.374Z,932.81
2022-09-14T01:51:21.392Z,932.82
2022-09-14T01:52:21.402Z,932.86
2022-09-14T01:53:21.417Z,932.85
2022-09-14T01:54:21.432Z,932.85
2022-09-14T01:55:21.443Z,932.85
2022-09-14T01:56:21.457Z,932.88
2022-09-14T01:57:21.473Z,932.86
2022-09-14T01:58:21.484Z,932.89
2022-09-14T01:59:21.499Z,932.93
2022-09-14T02:00:21.517Z,932.92
2022-09-14T02:01:21.680Z,932.95
2022-09-14T02:02:21.645Z,932.95
2022-09-14T02:03:21.641Z,932.93
2022-09-14T02:04:21.653Z,932.93
2022-09-14T02:05:21.672Z,932.93
2022-09-14T02:06:21.681Z,932.93
2022-09-14T02:07:21.694Z,932.95
2022-09-14T02:08:21.719Z,932.94
2022-09-14T02:09:21.856Z,932.93
2022-09-14T02:10:21.785Z,932.94
2022-09-14T02:11:21.787Z,932.91
2022-09-14T02:12:21.797Z,932.92
2022-09-14T02:13:21.781Z,932.93
2022-09-14T02:14:21.794Z,932.95
2022-09-14T02:15:21.803Z,932.97
2022-09-14T02:16:21.899Z,932.99
2022-09-14T02:17:21.830Z,932.94
2022-09-14T02:18:21.947Z,932.96
2022-09-14T02:19:23.978Z,932.97
2022-09-14T02:20:21.874Z,932.96
2022-09-14T02:21:21.889Z,933.01
2022-09-14T02:22:21.901Z,933.00
2022-09-14T02:23:21.915Z,933.00
2022-09-14T02:24:21.927Z,933.00
2022-09-14T02:25:21.942Z,933.00
2022-09-14T02:26:21.957Z,933.02
2022-09-14T02:27:21.968Z,933.02
2022-09-14T02:28:21.982Z,932.99
2022-09-14T02:29:21.997Z,932.98
2022-09-14T02:30:22.010Z,932.98
2022-09-14T02:31:22.040Z,932.93
2022-09-14T02:32:22.038Z,932.91
2022-09-14T02:33:22.053Z,932.91
2022-09-14T02:34:22.089Z,932.88
2022-09-14T02:35:22.080Z,932.86
2022-09-14T02:36:22.094Z,932.83
2022-09-14T02:37:22.108Z,932.82
2022-09-14T02:38:22.118Z,932.84
2022-09-14T02:39:22.135Z,932.81
2022-09-14T02:40:22.239Z,932.80
2022-09-14T02:41:22.161Z,932.80
2022-09-14T02:42:22.178Z,932.79
2022-09-14T02:43:22.189Z,932.80
2022-09-14T02:44:22.203Z,932.83
2022-09-14T02:45:22.215Z,932.79
2022-09-14T02:46:22.267Z,932.80
2022-09-14T02:47:22.243Z,932.77
2022-09-14T02:48:22.256Z,932.75
2022-09-14T02:49:22.271Z,932.76
2022-09-14T02:50:22.300Z,932.75
2022-09-14T02:51:22.298Z,932.75
2022-09-14T02:52:22.312Z,932.76
2022-09-14T02:53:22.324Z,932.74
2022-09-14T02:54:22.346Z,932.73
2022-09-14T02:55:22.352Z,932.70
2022-09-14T02:56:22.367Z,932.69
2022-09-14T02:57:22.381Z,932.67
2022-09-14T02:58:22.393Z,932.59
2022-09-14T02:59:22.409Z,932.63
2022-09-14T03:00:22.424Z,932.62
2022-09-14T03:01:22.570Z,932.64
2022-09-14T03:02:22.553Z,932.63
2022-09-14T03:03:22.464Z,932.58
2022-09-14T03:04:22.479Z,932.55
2022-09-14T03:05:22.492Z,932.58
2022-09-14T03:06:22.519Z,932.63
2022-09-14T03:07:22.517Z,932.63
2022-09-14T03:08:22.531Z,932.67
2022-09-14T03:09:22.545Z,932.69
2022-09-14T03:10:22.558Z,932.74
2022-09-14T03:11:22.573Z,932.77
2022-09-14T03:12:22.585Z,932.76
2022-09-14T03:13:22.599Z,932.79
2022-09-14T03:14:22.357Z,932.84
2022-09-14T03:15:22.371Z,932.81
2022-09-14T03:16:22.509Z,932.81
2022-09-14T03:17:22.400Z,932.82
2022-09-14T03:18:22.671Z,932.81
2022-09-14T03:19:22.682Z,932.83
2022-09-14T03:20:22.720Z,932.79
2022-09-14T03:21:22.719Z,932.82
2022-09-14T03:22:22.831Z,932.76
2022-09-14T03:23:22.749Z,932.73
2022-09-14T03:24:22.751Z,932.72
2022-09-14T03:25:22.767Z,932.70
2022-09-14T03:26:22.782Z,932.73
2022-09-14T03:27:22.792Z,932.72
2022-09-14T03:28:22.808Z,932.71
2022-09-14T03:29:22.822Z,932.70
2022-09-14T03:30:22.838Z,932.73
2022-09-14T03:31:22.926Z,932.73
2022-09-14T03:32:22.883Z,932.70
2022-09-14T03:33:22.874Z,932.71
2022-09-14T03:34:22.886Z,932.69
2022-09-14T03:35:22.904Z,932.71
2022-09-14T03:36:22.928Z,932.74
2022-09-14T03:37:22.932Z,932.77
2022-09-14T03:38:22.965Z,932.77
2022-09-14T03:39:22.955Z,932.78
2022-09-14T03:40:23.034Z,932.76
2022-09-14T03:41:22.985Z,932.78
2022-09-14T03:42:22.998Z,932.79
2022-09-14T03:43:23.011Z,932.77
2022-09-14T03:44:22.768Z,932.77
2022-09-14T03:45:22.789Z,932.79
2022-09-14T03:46:22.924Z,932.82
2022-09-14T03:47:22.815Z,932.80
2022-09-14T03:48:22.825Z,932.78
2022-09-14T03:49:23.092Z,932.83
2022-09-14T03:50:23.108Z,932.80
2022-09-14T03:51:23.119Z,932.81
2022-09-14T03:52:23.136Z,932.79
2022-09-14T03:53:23.148Z,932.81
2022-09-14T03:54:23.181Z,932.82
2022-09-14T03:55:23.182Z,932.85
2022-09-14T03:56:23.190Z,932.88
2022-09-14T03:57:23.203Z,932.89
2022-09-14T03:58:23.221Z,932.90
2022-09-14T03:59:23.230Z,932.95
2022-09-14T04:00:23.245Z,932.91
2022-09-14T04:01:23.350Z,932.93
2022-09-14T04:02:23.303Z,932.96
2022-09-14T04:03:23.284Z,932.94
2022-09-14T04:04:23.300Z,932.92
2022-09-14T04:05:23.313Z,932.95
2022-09-14T04:06:23.328Z,933.02
2022-09-14T04:07:23.341Z,933.03
2022-09-14T04:08:23.354Z,933.04
2022-09-14T04:09:23.369Z,933.05
2022-09-14T04:10:23.400Z,933.06
2022-09-14T04:11:23.395Z,933.07
2022-09-14T04:12:23.410Z,933.07
2022-09-14T04:13:23.422Z,933.08
2022-09-14T04:14:23.436Z,933.10
2022-09-14T04:15:23.451Z,933.14
2022-09-14T04:16:23.562Z,933.12
2022-09-14T04:17:23.499Z,933.10
2022-09-14T04:18:23.505Z,933.09
2022-09-14T04:19:23.511Z,933.12
2022-09-14T04:20:23.520Z,933.09
2022-09-14T04:21:23.552Z,933.11
2022-09-14T04:22:23.551Z,933.11
2022-09-14T04:23:23.560Z,933.12
2022-09-14T04:24:26.412Z,933.10
2022-09-14T04:25:23.587Z,933.08
2022-09-14T04:26:23.618Z,933.07
2022-09-14T04:27:23.613Z,933.07
2022-09-14T04:28:23.627Z,932.97
2022-09-14T04:29:23.641Z,932.98
2022-09-14T04:30:23.666Z,933.02
2022-09-14T04:31:23.761Z,933.00
2022-09-14T04:32:23.683Z,932.98
2022-09-14T04:33:23.695Z,932.99
2022-09-14T04:34:23.710Z,932.93
2022-09-14T04:35:23.721Z,932.97
2022-09-14T04:36:23.737Z,932.96
2022-09-14T04:37:23.751Z,932.93
2022-09-14T04:38:23.764Z,932.88
2022-09-14T04:39:23.777Z,932.93
2022-09-14T04:40:23.857Z,932.91
2022-09-14T04:41:23.805Z,932.88
2022-09-14T04:42:23.925Z,932.84
2022-09-14T04:43:23.834Z,932.82
2022-09-14T04:44:23.849Z,932.82
2022-09-14T04:45:23.859Z,932.83
2022-09-14T04:46:23.976Z,932.79
2022-09-14T04:47:23.886Z,932.77
2022-09-14T04:48:23.902Z,932.78
2022-09-14T04:49:23.920Z,932.80
2022-09-14T04:50:23.928Z,932.78
2022-09-14T04:51:23.942Z,932.81
2022-09-14T04:52:23.956Z,932.81
2022-09-14T04:53:23.969Z,932.78
2022-09-14T04:54:24.028Z,932.81
2022-09-14T04:55:24.009Z,932.82
2022-09-14T04:56:24.056Z,932.82
2022-09-14T04:57:24.031Z,932.85
2022-09-14T04:58:24.055Z,932.83
2022-09-14T04:59:24.051Z,932.84
2022-09-14T05:00:24.064Z,932.85
2022-09-14T05:01:24.219Z,932.87
2022-09-14T05:02:24.322Z,932.89
2022-09-14T05:03:24.105Z,932.88
2022-09-14T05:04:24.118Z,932.87
2022-09-14T05:05:24.133Z,932.83
2022-09-14T05:06:24.145Z,932.85
2022-09-14T05:07:24.160Z,932.83
2022-09-14T05:08:24.175Z,932.82
2022-09-14T05:09:24.186Z,932.84
2022-09-14T05:10:24.200Z,932.79
2022-09-14T05:11:24.213Z,932.79
2022-09-14T05:12:24.229Z,932.78
2022-09-14T05:13:24.242Z,932.80
2022-09-14T05:14:24.274Z,932.81
2022-09-14T05:15:24.267Z,932.86
2022-09-14T05:16:24.358Z,932.85
2022-09-14T05:17:24.295Z,932.92
2022-09-14T05:18:24.313Z,932.88
2022-09-14T05:19:24.322Z,932.87
2022-09-14T05:20:24.339Z,932.87
2022-09-14T05:21:24.349Z,932.85
2022-09-14T05:22:24.364Z,932.89
2022-09-14T05:23:24.377Z,932.85
2022-09-14T05:24:24.388Z,932.85
2022-09-14T05:25:24.408Z,932.84
2022-09-14T05:26:24.419Z,932.83
2022-09-14T05:27:24.431Z,932.82
2022-09-14T05:28:24.445Z,932.83
2022-09-14T05:29:24.473Z,932.80
2022-09-14T05:30:24.576Z,932.81
2022-09-14T05:31:24.593Z,932.81
2022-09-14T05:32:24.500Z,932.78
2022-09-14T05:33:24.513Z,932.80
2022-09-14T05:34:24.525Z,932.78
2022-09-14T05:35:24.539Z,932.74
2022-09-14T05:36:24.553Z,932.77
2022-09-14T05:37:24.567Z,932.76
2022-09-14T05:38:24.580Z,932.75
2022-09-14T05:39:24.594Z,932.74
2022-09-14T05:40:24.655Z,932.75
2022-09-14T05:41:24.621Z,932.73
2022-09-14T05:42:24.641Z,932.74
2022-09-14T05:43:24.647Z,932.76
2022-09-14T05:44:24.663Z,932.71
2022-09-14T05:45:24.677Z,932.73
2022-09-14T05:46:24.753Z,932.73
2022-09-14T05:47:24.702Z,932.72
2022-09-14T05:48:24.717Z,932.69
2022-09-14T05:49:24.730Z,932.68
2022-09-14T05:50:24.846Z,932.66
2022-09-14T05:51:24.758Z,932.56
2022-09-14T05:52:24.770Z,932.53
2022-09-14T05:53:24.784Z,932.51
2022-09-14T05:54:24.828Z,932.46
2022-09-14T05:55:24.814Z,932.52
2022-09-14T05:56:24.825Z,932.61
2022-09-14T05:57:24.839Z,932.66
2022-09-14T05:58:24.852Z,932.69
2022-09-14T05:59:24.864Z,932.69
2022-09-14T06:00:24.879Z,932.66
2022-09-14T06:01:24.993Z,932.65
2022-09-14T06:02:25.045Z,932.63
2022-09-14T06:03:24.920Z,932.62
2022-09-14T06:04:24.939Z,932.59
2022-09-14T06:05:25.004Z,932.58
2022-09-14T06:06:24.963Z,932.59
2022-09-14T06:07:24.973Z,932.51
2022-09-14T06:08:24.987Z,932.54
2022-09-14T06:09:25.002Z,932.47
2022-09-14T06:10:25.014Z,932.49
2022-09-14T06:11:25.027Z,932.50
2022-09-14T06:12:25.042Z,932.52
2022-09-14T06:13:25.056Z,932.55
2022-09-14T06:14:25.068Z,932.57
2022-09-14T06:15:25.083Z,932.56
2022-09-14T06:16:25.095Z,932.55
2022-09-14T06:17:25.111Z,932.57
2022-09-14T06:18:25.141Z,932.56
2022-09-14T06:19:25.138Z,932.61
2022-09-14T06:20:25.149Z,932.57
2022-09-14T06:21:25.177Z,932.62
2022-09-14T06:22:25.178Z,932.60
2022-09-14T06:23:25.189Z,932.55
2022-09-14T06:24:25.203Z,932.59
2022-09-14T06:25:25.218Z,932.60
2022-09-14T06:26:25.234Z,932.62
2022-09-14T06:27:25.243Z,932.63
2022-09-14T06:28:25.259Z,932.62
2022-09-14T06:29:25.274Z,932.65
2022-09-14T06:30:25.284Z,932.63
2022-09-14T06:31:25.308Z,932.61
2022-09-14T06:32:25.311Z,932.66
2022-09-14T06:33:25.326Z,932.57
2022-09-14T06:34:25.444Z,932.54
2022-09-14T06:35:25.353Z,932.53
2022-09-14T06:36:25.367Z,932.50
2022-09-14T06:37:25.381Z,932.54
2022-09-14T06:38:25.394Z,932.49
2022-09-14T06:39:25.407Z,932.48
2022-09-14T06:40:25.543Z,932.50
2022-09-14T06:41:25.435Z,932.46
2022-09-14T06:42:25.447Z,932.47
2022-09-14T06:43:25.462Z,932.45
2022-09-14T06:44:25.219Z,932.45
2022-09-14T06:45:25.233Z,932.47
2022-09-14T06:46:25.245Z,932.46
2022-09-14T06:47:25.258Z,932.41
2022-09-14T06:48:25.271Z,932.42
2022-09-14T06:49:25.544Z,932.43
2022-09-14T06:50:25.712Z,932.40
2022-09-14T06:51:25.568Z,932.42
2022-09-14T06:52:25.583Z,932.42
2022-09-14T06:53:25.598Z,932.43
2022-09-14T06:54:25.609Z,932.38
2022-09-14T06:55:25.622Z,932.36
2022-09-14T06:56:25.638Z,932.33
2022-09-14T06:57:25.652Z,932.35
2022-09-14T06:58:25.663Z,932.36
2022-09-14T06:59:25.679Z,932.39
2022-09-14T07:00:25.692Z,932.43
2022-09-14T07:01:25.705Z,932.52
2022-09-14T07:02:25.790Z,932.55
2022-09-14T07:03:25.733Z,932.56
2022-09-14T07:04:25.747Z,932.57
2022-09-14T07:05:25.759Z,932.56
2022-09-14T07:06:25.877Z,932.58
2022-09-14T07:07:25.787Z,932.58
2022-09-14T07:08:25.799Z,932.58
2022-09-14T07:09:25.814Z,932.56
2022-09-14T07:10:25.828Z,932.58
2022-09-14T07:11:25.840Z,932.61
2022-09-14T07:12:25.856Z,932.64
2022-09-14T07:13:25.869Z,932.63
2022-09-14T07:14:29.234Z,932.65
2022-09-14T07:15:25.895Z,932.63
2022-09-14T07:16:25.909Z,932.64
2022-09-14T07:17:25.923Z,932.61
2022-09-14T07:18:25.942Z,932.60
2022-09-14T07:19:25.948Z,932.56
2022-09-14T07:20:25.708Z,932.55
2022-09-14T07:21:25.724Z,932.52
2022-09-14T07:22:25.833Z,932.50
2022-09-14T07:23:25.745Z,932.50
2022-09-14T07:24:26.018Z,932.44
2022-09-14T07:25:26.031Z,932.45
2022-09-14T07:26:26.041Z,932.44
2022-09-14T07:27:26.056Z,932.50
2022-09-14T07:28:26.070Z,932.50
2022-09-14T07:29:26.084Z,932.45
2022-09-14T07:30:26.131Z,932.41
2022-09-14T07:31:26.201Z,932.49
2022-09-14T07:32:26.123Z,932.49
2022-09-14T07:33:26.232Z,932.53
2022-09-14T07:34:26.152Z,932.61
2022-09-14T07:35:26.166Z,932.60
2022-09-14T07:36:26.180Z,932.62
2022-09-14T07:37:26.193Z,932.62
2022-09-14T07:38:41.729Z,932.60
2022-09-14T07:39:26.220Z,932.61
2022-09-14T07:40:26.284Z,932.63
2022-09-14T07:41:26.246Z,932.58
2022-09-14T07:42:26.258Z,932.55
2022-09-14T07:43:26.271Z,932.62
2022-09-14T07:44:26.284Z,932.63
2022-09-14T07:45:26.299Z,932.61
2022-09-14T07:46:26.387Z,932.68
2022-09-14T07:47:26.325Z,932.71
2022-09-14T07:48:26.340Z,932.76
2022-09-14T07:49:26.359Z,932.81
2022-09-14T07:50:26.406Z,932.92
2022-09-14T07:51:26.381Z,932.91
2022-09-14T07:52:26.395Z,932.91
2022-09-14T07:53:26.407Z,932.93
2022-09-14T07:54:26.438Z,932.93
2022-09-14T07:55:26.178Z,933.01
2022-09-14T07:56:26.190Z,933.01
2022-09-14T07:57:39.623Z,933.07
2022-09-14T07:58:26.221Z,933.05
2022-09-14T07:59:41.775Z,933.15
2022-09-14T08:00:26.502Z,933.21
2022-09-14T08:01:26.561Z,933.19
2022-09-14T08:02:26.563Z,933.29
2022-09-14T08:03:26.543Z,933.40
2022-09-14T08:04:26.559Z,933.45
2022-09-14T08:05:26.569Z,933.51
2022-09-14T08:06:26.581Z,933.59
2022-09-14T08:07:26.596Z,933.60
2022-09-14T08:08:26.608Z,933.59
2022-09-14T08:09:26.635Z,933.54
2022-09-14T08:10:26.655Z,933.48
2022-09-14T08:11:26.650Z,933.42
2022-09-14T08:12:26.663Z,933.33
2022-09-14T08:13:26.677Z,933.31
2022-09-14T08:14:26.689Z,933.37
2022-09-14T08:15:28.656Z,933.40
2022-09-14T08:16:26.753Z,933.41
2022-09-14T08:17:26.728Z,933.48
2022-09-14T08:18:26.743Z,933.45
2022-09-14T08:19:26.756Z,933.53
2022-09-14T08:20:26.769Z,933.64
2022-09-14T08:21:26.785Z,933.74
2022-09-14T08:22:26.796Z,933.84
2022-09-14T08:23:26.816Z,933.91
2022-09-14T08:24:26.827Z,934.01
2022-09-14T08:25:26.838Z,934.03
2022-09-14T08:26:26.867Z,934.06
2022-09-14T08:27:26.865Z,934.01
2022-09-14T08:28:26.877Z,934.01
2022-09-14T08:29:26.893Z,933.98
2022-09-14T08:30:26.904Z,934.00
2022-09-14T08:31:27.020Z,933.97
2022-09-14T08:32:26.931Z,934.02
2022-09-14T08:33:26.946Z,934.04
2022-09-14T08:34:26.957Z,934.03
2022-09-14T08:35:46.905Z,934.00
2022-09-14T08:36:26.730Z,934.03
2022-09-14T08:37:26.744Z,933.99
2022-09-14T08:38:26.756Z,934.04
2022-09-14T08:39:26.768Z,934.11
2022-09-14T08:40:26.843Z,934.11
2022-09-14T08:41:26.797Z,934.13
2022-09-14T08:42:26.829Z,934.10
2022-09-14T08:43:26.821Z,934.06
2022-09-14T08:44:27.095Z,934.03
2022-09-14T08:45:27.174Z,934.05
2022-09-14T08:46:27.122Z,934.08
2022-09-14T08:47:27.139Z,934.21
2022-09-14T08:48:27.148Z,934.22
2022-09-14T08:49:27.164Z,934.27
2022-09-14T08:50:27.173Z,934.27
2022-09-14T08:51:27.185Z,934.32
2022-09-14T08:52:27.200Z,934.38
2022-09-14T08:53:27.213Z,934.45
2022-09-14T08:54:27.226Z,934.55
2022-09-14T08:55:27.241Z,934.60
2022-09-14T08:56:27.254Z,934.70
2022-09-14T08:57:27.280Z,934.80
2022-09-14T08:58:27.304Z,934.87
2022-09-14T08:59:27.292Z,934.95
2022-09-14T09:00:27.308Z,935.04
2022-09-14T09:01:27.381Z,935.10
2022-09-14T09:02:27.332Z,935.03
2022-09-14T09:03:27.409Z,935.09
2022-09-14T09:04:27.359Z,935.09
2022-09-14T09:05:27.374Z,935.14
2022-09-14T09:06:27.386Z,935.17
2022-09-14T09:07:27.399Z,935.16
2022-09-14T09:08:27.417Z,935.11
2022-09-14T09:09:27.428Z,935.04
2022-09-14T09:10:27.443Z,934.96
2022-09-14T09:11:27.455Z,934.91
2022-09-14T09:12:27.468Z,934.88
2022-09-14T09:13:27.485Z,934.87
2022-09-14T09:14:27.590Z,934.93
2022-09-14T09:15:27.508Z,934.98
2022-09-14T09:16:27.565Z,935.02
2022-09-14T09:17:27.535Z,935.04
2022-09-14T09:18:27.548Z,935.07
2022-09-14T09:19:28.816Z,935.04
2022-09-14T09:20:27.573Z,935.07
2022-09-14T09:21:27.587Z,935.08
2022-09-14T09:22:27.603Z,935.11
2022-09-14T09:23:27.613Z,935.13
2022-09-14T09:24:27.631Z,935.10
2022-09-14T09:25:27.641Z,935.13
2022-09-14T09:26:27.654Z,935.20
2022-09-14T09:27:27.669Z,935.16
2022-09-14T09:28:27.680Z,935.16
2022-09-14T09:29:27.701Z,935.14
2022-09-14T09:30:27.817Z,935.18
2022-09-14T09:31:27.750Z,935.24
2022-09-14T09:32:27.737Z,935.36
2022-09-14T09:33:27.747Z,935.44
2022-09-14T09:34:27.767Z,935.55
2022-09-14T09:35:27.775Z,935.59
2022-09-14T09:36:27.789Z,935.64
2022-09-14T09:37:27.801Z,935.65
2022-09-14T09:38:27.815Z,935.65
2022-09-14T09:39:27.828Z,935.72
2022-09-14T09:40:27.983Z,935.70
2022-09-14T09:41:27.854Z,935.77
2022-09-14T09:42:27.868Z,935.72
2022-09-14T09:43:48.404Z,935.66
2022-09-14T09:44:27.637Z,935.65
2022-09-14T09:45:27.654Z,935.70
2022-09-14T09:46:27.848Z,935.78
2022-09-14T09:47:27.678Z,935.87
2022-09-14T09:48:27.695Z,936.08
2022-09-14T09:49:27.961Z,936.23
2022-09-14T09:50:27.975Z,936.39
2022-09-14T09:51:27.989Z,936.45
2022-09-14T09:52:28.004Z,936.45
2022-09-14T09:53:28.015Z,936.47
2022-09-14T09:54:28.028Z,936.45
2022-09-14T09:55:28.042Z,936.36
2022-09-14T09:56:28.054Z,936.26
2022-09-14T09:57:28.072Z,936.24
2022-09-14T09:58:28.082Z,936.25
2022-09-14T09:59:28.094Z,936.32
2022-09-14T10:00:28.108Z,936.32
2022-09-14T10:01:28.183Z,936.23
2022-09-14T10:02:28.252Z,936.14
2022-09-14T10:03:28.154Z,935.97
2022-09-14T10:04:28.163Z,935.84
2022-09-14T10:05:28.175Z,935.69
2022-09-14T10:06:28.192Z,935.58
2022-09-14T10:07:28.201Z,935.47
2022-09-14T10:08:28.218Z,935.46
2022-09-14T10:09:28.228Z,935.49
2022-09-14T10:10:28.241Z,935.50
2022-09-14T10:11:28.254Z,935.45
2022-09-14T10:12:28.270Z,935.38
2022-09-14T10:13:28.282Z,935.24
2022-09-14T10:14:28.293Z,935.10
2022-09-14T10:15:28.309Z,935.04
2022-09-14T10:16:28.405Z,934.98
2022-09-14T10:17:28.336Z,935.01
2022-09-14T10:18:28.452Z,935.03
2022-09-14T10:19:28.362Z,935.06
2022-09-14T10:20:28.375Z,935.12
2022-09-14T10:21:28.389Z,935.15
2022-09-14T10:22:28.404Z,935.21
2022-09-14T10:23:28.416Z,935.24
2022-09-14T10:24:28.428Z,935.26
2022-09-14T10:25:28.442Z,935.27
2022-09-14T10:26:28.453Z,935.32
2022-09-14T10:27:28.469Z,935.25
2022-09-14T10:28:28.490Z,935.27
2022-09-14T10:29:28.496Z,935.28
2022-09-14T10:30:28.507Z,935.29
2022-09-14T10:31:28.550Z,935.34
2022-09-14T10:32:28.536Z,935.37
2022-09-14T10:33:28.551Z,935.42
2022-09-14T10:34:28.587Z,935.43
2022-09-14T10:35:28.576Z,935.36
2022-09-14T10:36:28.589Z,935.31
2022-09-14T10:37:28.602Z,935.26
2022-09-14T10:38:28.615Z,935.20
2022-09-14T10:39:28.629Z,935.25
2022-09-14T10:40:28.698Z,935.30
2022-09-14T10:41:28.654Z,935.45
2022-09-14T10:42:28.667Z,935.56
2022-09-14T10:43:28.680Z,935.63
2022-09-14T10:44:28.695Z,935.73
2022-09-14T10:45:28.709Z,935.75
2022-09-14T10:46:28.771Z,935.74
2022-09-14T10:47:28.735Z,935.71
2022-09-14T10:48:28.751Z,935.66
2022-09-14T10:49:28.764Z,935.66
2022-09-14T10:50:28.851Z,935.61
2022-09-14T10:51:28.790Z,935.63
2022-09-14T10:52:28.802Z,935.61
2022-09-14T10:53:28.817Z,935.60
2022-09-14T10:54:28.828Z,935.59
2022-09-14T10:55:28.842Z,935.59
2022-09-14T10:56:28.855Z,935.63
2022-09-14T10:57:28.867Z,935.66
2022-09-14T10:58:28.880Z,935.74
2022-09-14T10:59:28.895Z,935.78
2022-09-14T11:00:28.910Z,935.80
2022-09-14T11:01:28.945Z,935.86
2022-09-14T11:02:28.809Z,935.89
2022-09-14T11:03:28.697Z,935.97
2022-09-14T11:04:28.962Z,936.01
2022-09-14T11:05:28.975Z,936.05
2022-09-14T11:06:29.093Z,936.12
2022-09-14T11:07:29.005Z,936.09
2022-09-14T11:08:29.014Z,936.11
2022-09-14T11:09:29.033Z,936.15
2022-09-14T11:10:29.041Z,936.13
2022-09-14T11:11:29.056Z,936.13
2022-09-14T11:12:29.068Z,936.18
2022-09-14T11:13:29.082Z,936.19
2022-09-14T11:14:29.093Z,936.25
2022-09-14T11:15:28.856Z,936.21
2022-09-14T11:16:28.940Z,936.18
2022-09-14T11:17:28.880Z,936.18
2022-09-14T11:18:28.891Z,936.17
2022-09-14T11:19:29.180Z,936.14
2022-09-14T11:20:29.175Z,936.13
2022-09-14T11:21:28.929Z,936.14
2022-09-14T11:22:29.049Z,936.14
2022-09-14T11:23:28.959Z,936.16
2022-09-14T11:24:29.228Z,936.19
2022-09-14T11:25:29.241Z,936.23
2022-09-14T11:26:29.255Z,936.19
2022-09-14T11:27:29.266Z,936.24
2022-09-14T11:28:29.279Z,936.25
2022-09-14T11:29:29.293Z,936.28
2022-09-14T11:30:29.307Z,936.26
2022-09-14T11:31:29.372Z,936.28
2022-09-14T11:32:29.352Z,936.31
2022-09-14T11:33:31.411Z,936.34
2022-09-14T11:34:29.360Z,936.33
2022-09-14T11:35:29.378Z,936.40
2022-09-14T11:36:29.386Z,936.39
2022-09-14T11:37:29.402Z,936.39
2022-09-14T11:38:29.450Z,936.37
2022-09-14T11:39:29.430Z,936.39
2022-09-14T11:40:29.484Z,936.40
2022-09-14T11:41:29.454Z,936.38
2022-09-14T11:42:29.464Z,936.35
2022-09-14T11:43:29.481Z,936.34
2022-09-14T11:44:29.494Z,936.35
2022-09-14T11:45:29.508Z,936.40
2022-09-14T11:46:29.576Z,936.38
2022-09-14T11:47:29.534Z,936.43
2022-09-14T11:48:44.895Z,936.44
2022-09-14T11:49:29.559Z,936.48
2022-09-14T11:50:29.572Z,936.46
2022-09-14T11:51:29.584Z,936.49
2022-09-14T11:52:29.600Z,936.51
2022-09-14T11:53:29.611Z,936.56
2022-09-14T11:54:29.641Z,936.61
2022-09-14T11:55:29.639Z,936.69
2022-09-14T11:56:29.654Z,936.70
2022-09-14T11:57:29.666Z,936.72
2022-09-14T11:58:29.687Z,936.78
2022-09-14T11:59:29.696Z,936.75
2022-09-14T12:00:29.738Z,936.74
2022-09-14T12:01:29.719Z,936.74
2022-09-14T12:02:29.793Z,936.71
2022-09-14T12:03:29.774Z,936.70
2022-09-14T12:04:29.758Z,936.74
2022-09-14T12:05:29.794Z,936.77
2022-09-14T12:06:29.785Z,936.82
2022-09-14T12:07:29.797Z,936.80
2022-09-14T12:08:29.814Z,936.87
2022-09-14T12:09:29.828Z,936.87
2022-09-14T12:10:29.854Z,936.88
2022-09-14T12:11:29.856Z,936.91
2022-09-14T12:12:29.868Z,936.97
2022-09-14T12:13:29.879Z,937.06
2022-09-14T12:14:29.888Z,937.13
2022-09-14T12:15:29.933Z,937.15
2022-09-14T12:16:34.403Z,937.18
2022-09-14T12:17:45.190Z,937.17
2022-09-14T12:18:29.948Z,937.18
2022-09-14T12:19:29.957Z,937.19
2022-09-14T12:20:29.972Z,937.21
2022-09-14T12:21:29.984Z,937.23
2022-09-14T12:22:29.998Z,937.25
2022-09-14T12:23:30.012Z,937.27
2022-09-14T12:24:30.024Z,937.28
2022-09-14T12:25:30.037Z,937.32
2022-09-14T12:26:30.148Z,937.37
2022-09-14T12:27:30.062Z,937.40
2022-09-14T12:28:30.076Z,937.43